Time;durP1;ratioP1;P1;durP2;ratioP2;P2;SDS_P1;SDS_P2;PMS_P1;PMS_P2;Temp;Humidity;BMP_temperature;BMP_pressure;BME280_temperature;BME280_humidity;BME280_pressure;Samples;Min_cycle;Max_cycle;Signal;HPM_P1;HPM_P2
2022/10/08 00:01:53;;;;;;;18.93;16.13;;;23.50;99.90;;;;;;5071229;28;20200;-93
2022/10/08 00:04:25;;;;;;;19.97;15.97;;;23.50;99.90;;;;;;5043584;28;20200;-93
2022/10/08 00:06:56;;;;;;;16.90;15.30;;;23.40;99.90;;;;;;5054771;28;20216;-92
2022/10/08 00:09:28;;;;;;;17.03;15.10;;;23.50;99.90;;;;;;5054640;28;20239;-94
2022/10/08 00:11:59;;;;;;;18.30;14.47;;;23.40;99.90;;;;;;5037372;28;20623;-94
2022/10/08 00:14:33;;;;;;;17.43;14.73;;;23.30;99.90;;;;;;5054523;28;20223;-93
2022/10/08 00:17:06;;;;;;;15.60;14.00;;;23.20;99.90;;;;;;5054729;28;20207;-93
2022/10/08 00:19:37;;;;;;;18.83;14.17;;;23.10;99.90;;;;;;5054121;28;20200;-93
2022/10/08 00:22:08;;;;;;;16.23;13.53;;;23.00;99.90;;;;;;5053838;28;20216;-94
2022/10/08 00:24:40;;;;;;;18.50;13.90;;;23.00;99.90;;;;;;5054014;28;20208;-93
2022/10/08 00:27:12;;;;;;;16.63;13.83;;;22.90;99.90;;;;;;5022010;28;20216;-93
2022/10/08 00:29:45;;;;;;;17.17;14.67;;;22.80;99.90;;;;;;5055148;28;20239;-94
2022/10/08 00:32:18;;;;;;;16.40;14.70;;;22.70;99.90;;;;;;5057335;28;20204;-94
2022/10/08 00:34:50;;;;;;;15.63;14.00;;;22.60;99.90;;;;;;5058250;28;20216;-93
2022/10/08 00:37:21;;;;;;;15.90;14.20;;;22.50;99.90;;;;;;5058156;28;20530;-92
2022/10/08 00:39:52;;;;;;;19.23;14.73;;;22.40;99.90;;;;;;5058134;28;20432;-93
2022/10/08 00:42:23;;;;;;;16.73;15.03;;;22.30;99.90;;;;;;5057616;28;20208;-93
2022/10/08 00:44:58;;;;;;;17.10;15.33;;;22.30;99.90;;;;;;5057830;28;20200;-94
2022/10/08 00:47:46;;;;;;;16.53;14.87;;;22.20;99.90;;;;;;5057848;28;20212;-92
2022/10/08 00:50:24;;;;;;;16.80;14.83;;;22.10;99.90;;;;;;5058168;28;20248;-94
2022/10/08 00:53:00;;;;;;;18.70;14.40;;;22.00;99.90;;;;;;5056839;28;20211;-93
2022/10/08 00:55:32;;;;;;;19.50;15.07;;;21.80;99.90;;;;;;5058408;28;20229;-94
2022/10/08 00:58:11;;;;;;;20.27;15.27;;;21.70;99.90;;;;;;5057806;28;20219;-93
2022/10/08 01:00:44;;;;;;;18.63;15.53;;;21.60;99.90;;;;;;5057980;28;20210;-93
2022/10/08 01:03:16;;;;;;;16.73;14.70;;;21.40;99.90;;;;;;5056664;28;20216;-93
2022/10/08 01:05:56;;;;;;;20.70;15.53;;;21.30;99.90;;;;;;5057485;28;20213;-93
2022/10/08 01:08:35;;;;;;;18.13;15.50;;;21.20;99.90;;;;;;5057354;28;20212;-92
2022/10/08 01:11:14;;;;;;;17.97;16.07;;;21.10;99.90;;;;;;5057306;28;20284;-92
2022/10/08 01:13:53;;;;;;;23.10;16.97;;;21.00;99.90;;;;;;5039761;28;20235;-93
2022/10/08 01:16:36;;;;;;;17.60;15.70;;;20.90;99.90;;;;;;5057204;28;20212;-93
2022/10/08 01:19:23;;;;;;;18.53;15.77;;;20.80;99.90;;;;;;5057164;28;20208;-93
2022/10/08 01:22:08;;;;;;;16.93;15.23;;;20.60;99.90;;;;;;5056693;28;20208;-92
2022/10/08 01:27:42;;;;;;;18.43;15.93;;;20.40;99.90;;;;;;5057685;28;20546;-93
2022/10/08 01:30:19;;;;;;;17.93;15.87;;;20.30;99.90;;;;;;5057904;28;20240;-94
2022/10/08 01:33:01;;;;;;;20.30;16.37;;;20.20;99.90;;;;;;5056590;28;20215;-93
2022/10/08 01:35:36;;;;;;;18.90;16.07;;;20.00;99.90;;;;;;5058130;28;20215;-94
2022/10/08 01:38:10;;;;;;;20.23;16.90;;;20.00;99.90;;;;;;5041236;28;20741;-94
2022/10/08 01:40:44;;;;;;;19.13;17.07;;;19.80;99.90;;;;;;5042765;28;20387;-92
2022/10/08 01:43:22;;;;;;;18.63;16.43;;;19.70;99.90;;;;;;5059135;28;20294;-93
2022/10/08 01:45:57;;;;;;;21.87;16.53;;;19.70;99.90;;;;;;5057207;28;20206;-91
2022/10/08 01:48:34;;;;;;;22.60;17.23;;;19.60;99.90;;;;;;5058899;28;20656;-93
2022/10/08 01:51:12;;;;;;;22.80;17.70;;;19.50;99.90;;;;;;5057802;28;20577;-92
2022/10/08 01:53:46;;;;;;;18.97;16.97;;;19.40;99.90;;;;;;5056683;28;20204;-92
2022/10/08 01:56:21;;;;;;;21.03;17.70;;;19.40;99.90;;;;;;5057364;28;20212;-92
2022/10/08 01:59:00;;;;;;;22.93;17.63;;;19.30;99.90;;;;;;5061135;28;20211;-92
2022/10/08 02:01:37;;;;;;;28.27;20.93;;;19.20;99.90;;;;;;5057055;28;20208;-92
2022/10/08 02:06:58;;;;;;;25.70;20.03;;;19.20;99.90;;;;;;5059966;28;20212;-93
2022/10/08 02:09:31;;;;;;;30.40;23.70;;;19.00;99.90;;;;;;5057766;28;20212;-93
2022/10/08 02:12:06;;;;;;;31.57;21.33;;;19.00;99.90;;;;;;5057592;28;20207;-92
2022/10/08 02:14:43;;;;;;;28.27;20.97;;;18.90;99.90;;;;;;5071645;28;20256;-93
2022/10/08 02:17:25;;;;;;;26.67;21.33;;;18.90;99.90;;;;;;5058926;28;20222;-92
2022/10/08 02:20:01;;;;;;;29.67;21.40;;;18.80;99.90;;;;;;5074513;28;20208;-93
2022/10/08 02:22:37;;;;;;;30.13;23.03;;;18.70;99.90;;;;;;5063520;28;20255;-93
2022/10/08 02:25:13;;;;;;;29.40;23.87;;;18.60;99.90;;;;;;5064792;28;20199;-92
2022/10/08 02:27:52;;;;;;;30.47;25.03;;;18.60;99.90;;;;;;5072505;28;20222;-92
2022/10/08 02:30:26;;;;;;;32.23;25.53;;;18.50;99.90;;;;;;5060077;28;20236;-94
2022/10/08 02:33:03;;;;;;;34.00;26.43;;;18.40;99.90;;;;;;5055629;28;20649;-92
2022/10/08 02:35:41;;;;;;;32.80;27.20;;;18.40;99.90;;;;;;5056380;28;20211;-93
2022/10/08 02:38:18;;;;;;;35.17;29.30;;;18.40;99.90;;;;;;5055393;28;20204;-93
2022/10/08 02:40:54;;;;;;;31.20;27.23;;;18.30;99.90;;;;;;5055516;28;20200;-93
2022/10/08 02:43:30;;;;;;;31.27;27.70;;;18.30;99.90;;;;;;5054864;28;20208;-93
2022/10/08 02:46:10;;;;;;;32.93;27.87;;;18.20;99.90;;;;;;5055696;28;20219;-93
2022/10/08 02:48:45;;;;;;;33.53;30.00;;;18.10;99.90;;;;;;5040397;28;20238;-93
2022/10/08 02:51:20;;;;;;;35.30;30.70;;;18.00;99.90;;;;;;5041347;28;20234;-93
2022/10/08 02:53:51;;;;;;;38.87;32.07;;;18.00;99.90;;;;;;5054168;28;20204;-93
2022/10/08 02:56:26;;;;;;;36.73;32.73;;;17.90;99.90;;;;;;5056071;28;20216;-93
2022/10/08 02:58:58;;;;;;;37.53;33.00;;;17.90;99.90;;;;;;5038965;28;20215;-93
2022/10/08 03:01:37;;;;;;;40.47;33.73;;;17.80;99.90;;;;;;5055641;28;20576;-93
2022/10/08 03:04:15;;;;;;;41.87;33.43;;;17.80;99.90;;;;;;5055797;28;20207;-92
2022/10/08 03:06:47;;;;;;;42.23;34.80;;;17.70;99.90;;;;;;5055510;28;20218;-92
2022/10/08 03:09:22;;;;;;;40.60;34.13;;;17.60;99.90;;;;;;5055608;28;20208;-92
2022/10/08 03:11:56;;;;;;;41.60;34.57;;;17.60;99.90;;;;;;5054709;28;20671;-92
2022/10/08 03:14:29;;;;;;;41.50;34.83;;;17.60;99.90;;;;;;5055564;28;20603;-93
2022/10/08 03:17:03;;;;;;;40.73;34.70;;;17.50;99.90;;;;;;5061680;28;20212;-92
2022/10/08 03:19:36;;;;;;;41.83;34.20;;;17.50;99.90;;;;;;5062080;28;20212;-91
2022/10/08 03:22:08;;;;;;;39.80;33.90;;;17.50;99.90;;;;;;5061579;28;20200;-92
2022/10/08 03:24:39;;;;;;;42.07;35.27;;;17.40;99.90;;;;;;5056063;28;20204;-93
2022/10/08 03:27:11;;;;;;;39.30;34.53;;;17.40;99.90;;;;;;5057904;28;20204;-92
2022/10/08 03:29:43;;;;;;;42.83;36.00;;;17.30;99.90;;;;;;5055060;28;20261;-93
2022/10/08 03:32:18;;;;;;;43.43;36.03;;;17.30;99.90;;;;;;5054221;28;20700;-92
2022/10/08 03:34:49;;;;;;;44.37;39.13;;;17.20;99.90;;;;;;5039546;28;20303;-93
2022/10/08 03:37:21;;;;;;;50.77;43.87;;;17.20;99.90;;;;;;5059315;28;20196;-93
2022/10/08 03:39:53;;;;;;;58.03;46.43;;;17.10;99.90;;;;;;5054932;28;20810;-92
2022/10/08 03:42:24;;;;;;;57.43;48.70;;;17.10;99.90;;;;;;5054124;28;20215;-93
2022/10/08 03:44:55;;;;;;;55.10;45.90;;;17.00;99.90;;;;;;5055548;28;20291;-92
2022/10/08 03:47:28;;;;;;;57.40;45.77;;;17.00;99.90;;;;;;5056633;28;20292;-92
2022/10/08 03:50:00;;;;;;;51.77;43.53;;;16.90;99.90;;;;;;5054673;28;20212;-93
2022/10/08 03:52:32;;;;;;;51.50;44.10;;;16.90;99.90;;;;;;5020799;28;20277;-91
2022/10/08 03:55:03;;;;;;;49.03;41.00;;;16.80;99.90;;;;;;5037030;28;20204;-91
2022/10/08 03:57:34;;;;;;;47.37;41.03;;;16.80;99.90;;;;;;5056034;28;20210;-92
2022/10/08 04:00:06;;;;;;;45.60;37.53;;;16.80;99.90;;;;;;5054246;28;20204;-94
2022/10/08 04:02:39;;;;;;;40.50;34.23;;;16.70;99.90;;;;;;5053455;28;20216;-93
2022/10/08 04:05:11;;;;;;;40.80;35.13;;;16.70;99.90;;;;;;5057115;28;20843;-93
2022/10/08 04:07:42;;;;;;;41.33;34.07;;;16.60;99.90;;;;;;5058991;28;20234;-92
2022/10/08 04:10:13;;;;;;;38.33;32.67;;;16.60;99.90;;;;;;5058238;28;20208;-93
2022/10/08 04:12:44;;;;;;;41.67;32.97;;;16.60;99.90;;;;;;5057096;28;20246;-92
2022/10/08 04:15:16;;;;;;;39.00;33.07;;;16.50;99.90;;;;;;5062639;28;20253;-92
2022/10/08 04:17:49;;;;;;;39.67;33.23;;;16.50;99.90;;;;;;5078924;28;20214;-92
2022/10/08 04:20:20;;;;;;;38.80;33.00;;;16.40;99.90;;;;;;5078417;28;20208;-92
2022/10/08 04:22:52;;;;;;;41.43;32.60;;;16.40;99.90;;;;;;5060069;28;20235;-92
2022/10/08 04:25:23;;;;;;;39.30;33.13;;;16.30;99.90;;;;;;5061115;28;20210;-91
2022/10/08 04:27:55;;;;;;;40.17;30.87;;;16.30;99.90;;;;;;5077881;28;20208;-91
2022/10/08 04:30:26;;;;;;;38.23;31.87;;;16.30;99.90;;;;;;5078572;28;20200;-91
2022/10/08 04:33:00;;;;;;;41.40;31.57;;;16.30;99.90;;;;;;5045706;28;20234;-92
2022/10/08 04:35:31;;;;;;;37.57;31.53;;;16.20;99.90;;;;;;5058056;28;20204;-92
2022/10/08 04:38:02;;;;;;;40.23;31.87;;;16.20;99.90;;;;;;5060560;28;20219;-92
2022/10/08 04:40:33;;;;;;;39.60;32.00;;;16.10;99.90;;;;;;5072502;28;20205;-93
2022/10/08 04:43:04;;;;;;;41.43;33.13;;;16.10;99.90;;;;;;5077434;28;20279;-92
2022/10/08 04:45:35;;;;;;;37.27;32.50;;;16.10;99.90;;;;;;5073129;28;20208;-93
2022/10/08 04:48:08;;;;;;;38.80;32.97;;;16.00;99.90;;;;;;5072835;28;20212;-92
2022/10/08 04:50:39;;;;;;;42.67;32.50;;;16.00;99.90;;;;;;5071224;28;20206;-93
2022/10/08 04:53:11;;;;;;;41.37;32.13;;;16.00;99.90;;;;;;5044422;28;20239;-93
2022/10/08 04:55:43;;;;;;;40.53;32.00;;;15.90;99.90;;;;;;5060460;28;20200;-92
2022/10/08 04:58:14;;;;;;;38.03;31.80;;;16.00;99.90;;;;;;5057982;28;20209;-92
2022/10/08 05:00:46;;;;;;;37.20;31.70;;;15.90;99.90;;;;;;5057517;28;20211;-91
2022/10/08 05:03:20;;;;;;;36.37;30.43;;;15.90;99.90;;;;;;5023055;28;20219;-92
2022/10/08 05:05:51;;;;;;;35.23;29.97;;;15.90;99.90;;;;;;5057180;28;20216;-92
2022/10/08 05:08:22;;;;;;;37.63;30.53;;;15.90;99.90;;;;;;5040394;28;20208;-92
2022/10/08 05:10:53;;;;;;;33.40;29.00;;;15.80;99.90;;;;;;5056934;28;20208;-92
2022/10/08 05:13:25;;;;;;;33.20;28.57;;;15.80;99.90;;;;;;5056933;28;20664;-91
2022/10/08 05:15:57;;;;;;;33.67;27.27;;;15.80;99.90;;;;;;5055762;28;20212;-92
2022/10/08 05:18:30;;;;;;;34.67;28.33;;;15.80;99.90;;;;;;5057286;28;20209;-93
2022/10/08 05:21:04;;;;;;;35.27;27.90;;;15.80;99.90;;;;;;5056663;28;20300;-93
2022/10/08 05:23:36;;;;;;;29.90;26.33;;;15.70;99.90;;;;;;5056205;28;20204;-93
2022/10/08 05:26:18;;;;;;;31.20;27.60;;;15.70;99.90;;;;;;5057051;28;20543;-93
2022/10/08 05:29:11;;;;;;;30.00;26.70;;;15.70;99.90;;;;;;5042353;28;20218;-92
2022/10/08 05:31:43;;;;;;;29.77;26.27;;;15.70;99.90;;;;;;5038823;28;20238;-96
2022/10/08 05:34:16;;;;;;;31.43;25.57;;;15.60;99.90;;;;;;5056270;28;20216;-93
2022/10/08 05:36:48;;;;;;;30.60;25.53;;;15.60;99.90;;;;;;5059508;28;20206;-91
2022/10/08 05:39:19;;;;;;;30.60;26.07;;;15.60;99.90;;;;;;5059237;28;20211;-91
2022/10/08 05:41:50;;;;;;;28.93;25.37;;;15.60;99.90;;;;;;5058251;28;20211;-92
2022/10/08 05:44:22;;;;;;;28.97;25.80;;;15.60;99.90;;;;;;5056617;28;20200;-91
2022/10/08 05:46:53;;;;;;;29.67;25.90;;;15.60;99.90;;;;;;5060587;28;20212;-91
2022/10/08 05:49:26;;;;;;;29.17;24.70;;;15.50;99.90;;;;;;5059691;28;20204;-92
2022/10/08 05:51:58;;;;;;;29.50;24.27;;;15.50;99.90;;;;;;5038433;28;20575;-91
2022/10/08 05:54:30;;;;;;;27.03;24.20;;;15.50;99.90;;;;;;5056882;28;20208;-92
2022/10/08 05:57:01;;;;;;;29.77;24.00;;;15.40;99.90;;;;;;5023809;28;20208;-92
2022/10/08 05:59:32;;;;;;;27.20;23.67;;;15.40;99.90;;;;;;5056334;28;20204;-92
2022/10/08 06:02:03;;;;;;;31.47;23.23;;;15.40;99.90;;;;;;5055859;28;20200;-93
2022/10/08 06:04:36;;;;;;;27.77;24.07;;;15.40;99.90;;;;;;5056173;28;20216;-92
2022/10/08 06:07:08;;;;;;;26.73;22.10;;;15.40;99.90;;;;;;5056687;28;20208;-93
2022/10/08 06:09:39;;;;;;;27.10;23.07;;;15.30;99.90;;;;;;5056599;28;20700;-93
2022/10/08 06:12:11;;;;;;;27.67;22.63;;;15.20;99.90;;;;;;5060357;28;20295;-92
2022/10/08 06:14:43;;;;;;;27.97;23.17;;;15.20;99.90;;;;;;5057920;28;20192;-92
2022/10/08 06:17:14;;;;;;;27.13;22.60;;;15.10;99.90;;;;;;5075442;28;20188;-92
2022/10/08 06:19:47;;;;;;;24.20;21.60;;;15.10;99.90;;;;;;5075704;28;20436;-93
2022/10/08 06:22:18;;;;;;;24.40;21.77;;;15.00;99.90;;;;;;5073124;28;20207;-91
2022/10/08 06:24:49;;;;;;;29.63;23.37;;;15.00;99.90;;;;;;5073924;28;20260;-92
2022/10/08 06:27:20;;;;;;;25.60;22.23;;;15.00;99.90;;;;;;5076762;28;20212;-92
2022/10/08 06:29:52;;;;;;;27.73;22.80;;;15.00;99.90;;;;;;5075179;28;20204;-92
2022/10/08 06:32:23;;;;;;;25.27;21.23;;;15.00;99.90;;;;;;5072609;28;20232;-92
2022/10/08 06:34:57;;;;;;;27.33;22.17;;;14.90;99.90;;;;;;5052560;28;20232;-92
2022/10/08 06:37:28;;;;;;;26.77;22.00;;;14.90;99.90;;;;;;5068006;28;20209;-92
2022/10/08 06:39:59;;;;;;;29.53;22.73;;;14.90;99.90;;;;;;5039322;28;20963;-91
2022/10/08 06:42:30;;;;;;;29.33;23.33;;;14.90;99.90;;;;;;5054940;28;20248;-93
2022/10/08 06:45:01;;;;;;;26.43;22.90;;;14.80;99.90;;;;;;5055497;28;20212;-93
2022/10/08 06:47:34;;;;;;;30.93;23.10;;;14.80;99.90;;;;;;5055588;28;20215;-92
2022/10/08 06:50:08;;;;;;;28.90;23.13;;;14.80;99.90;;;;;;5055647;28;20212;-92
2022/10/08 06:52:41;;;;;;;28.50;22.30;;;14.70;99.90;;;;;;5053742;28;20232;-91
2022/10/08 06:55:13;;;;;;;25.67;22.87;;;14.70;99.90;;;;;;5038405;28;20212;-93
2022/10/08 06:57:45;;;;;;;26.03;23.23;;;14.60;99.90;;;;;;5055712;28;20675;-93
2022/10/08 07:00:16;;;;;;;30.77;23.60;;;14.60;99.90;;;;;;5055578;28;20234;-93
2022/10/08 07:02:47;;;;;;;28.23;23.53;;;14.60;99.90;;;;;;5054912;28;20627;-92
2022/10/08 07:05:21;;;;;;;27.37;23.70;;;14.60;99.90;;;;;;5055125;28;20208;-92
2022/10/08 07:07:52;;;;;;;28.17;24.03;;;14.50;99.90;;;;;;5058698;28;20203;-93
2022/10/08 07:10:24;;;;;;;27.37;22.60;;;14.50;99.90;;;;;;5051613;28;20224;-93
2022/10/08 07:13:02;;;;;;;27.63;21.97;;;14.50;99.90;;;;;;5038080;28;20323;-92
2022/10/08 07:15:33;;;;;;;25.63;22.80;;;14.50;99.90;;;;;;5027059;28;20228;-92
2022/10/08 07:18:04;;;;;;;26.37;23.50;;;14.40;99.90;;;;;;5040617;28;20205;-93
2022/10/08 07:20:38;;;;;;;25.47;22.67;;;14.40;99.90;;;;;;5040643;28;20525;-91
2022/10/08 07:23:09;;;;;;;27.37;23.30;;;14.30;99.90;;;;;;5035150;28;20220;-92
2022/10/08 07:25:40;;;;;;;28.17;23.47;;;14.30;99.90;;;;;;5039072;28;20205;-92
2022/10/08 07:28:12;;;;;;;29.50;23.47;;;14.30;99.90;;;;;;5035697;28;20211;-91
2022/10/08 07:30:43;;;;;;;28.90;23.07;;;14.30;99.90;;;;;;5035755;28;20208;-93
2022/10/08 07:33:15;;;;;;;25.23;22.53;;;14.30;99.90;;;;;;5035297;28;20247;-92
2022/10/08 07:35:50;;;;;;;26.87;23.23;;;14.20;99.90;;;;;;5037265;28;20213;-92
2022/10/08 07:38:22;;;;;;;28.03;23.33;;;14.20;99.90;;;;;;5036746;28;20208;-93
2022/10/08 07:40:56;;;;;;;25.90;22.47;;;14.20;99.90;;;;;;5051136;28;20222;-92
2022/10/08 07:43:27;;;;;;;27.07;24.10;;;14.20;99.90;;;;;;5036478;28;20271;-92
2022/10/08 07:45:58;;;;;;;29.63;23.73;;;14.20;99.90;;;;;;5054343;28;20593;-92
2022/10/08 07:48:30;;;;;;;30.27;22.47;;;14.20;99.90;;;;;;5041231;28;20586;-91
2022/10/08 07:51:12;;;;;;;29.63;23.97;;;14.20;99.90;;;;;;5037543;28;20213;-92
2022/10/08 07:53:43;;;;;;;26.73;23.30;;;14.10;99.90;;;;;;5035765;28;20240;-91
2022/10/08 07:56:16;;;;;;;26.37;23.13;;;14.10;99.90;;;;;;5034551;28;20220;-92
2022/10/08 07:58:47;;;;;;;31.17;23.67;;;14.10;99.90;;;;;;5034651;28;20204;-91
2022/10/08 08:01:21;;;;;;;27.13;22.93;;;14.10;99.90;;;;;;5034498;28;20292;-92
2022/10/08 08:03:54;;;;;;;27.47;23.53;;;14.10;99.90;;;;;;5033874;28;20219;-91
2022/10/08 08:06:27;;;;;;;28.40;22.20;;;14.00;99.90;;;;;;5034122;28;20227;-92
2022/10/08 08:09:00;;;;;;;27.23;22.47;;;14.00;99.90;;;;;;5034283;28;20547;-92
2022/10/08 08:11:31;;;;;;;27.30;21.90;;;14.00;99.90;;;;;;5034240;28;20208;-92
2022/10/08 08:14:05;;;;;;;28.30;21.93;;;14.00;99.90;;;;;;5016025;28;20723;-93
2022/10/08 08:16:39;;;;;;;24.27;20.80;;;14.00;99.90;;;;;;5034102;28;20213;-92
2022/10/08 08:19:11;;;;;;;26.70;22.23;;;14.00;99.90;;;;;;5033775;28;20232;-92
2022/10/08 08:21:45;;;;;;;26.83;22.27;;;14.00;99.90;;;;;;5033633;28;20216;-94
2022/10/08 08:24:17;;;;;;;26.03;21.13;;;13.90;99.90;;;;;;5036571;28;20209;-92
2022/10/08 08:26:48;;;;;;;24.20;21.50;;;13.90;99.90;;;;;;5020822;28;20205;-93
2022/10/08 08:29:21;;;;;;;27.50;21.77;;;13.90;99.90;;;;;;5037077;28;20224;-91
2022/10/08 08:31:52;;;;;;;26.60;22.10;;;13.90;99.90;;;;;;5036409;28;20565;-91
2022/10/08 08:34:25;;;;;;;24.80;21.10;;;13.80;99.90;;;;;;5036300;28;20225;-90
2022/10/08 08:37:01;;;;;;;25.60;21.10;;;13.90;99.90;;;;;;5017091;28;20205;-92
2022/10/08 08:39:33;;;;;;;27.60;21.60;;;13.80;99.90;;;;;;5034657;28;20250;-92
2022/10/08 08:42:22;;;;;;;24.63;21.93;;;13.80;99.90;;;;;;5033534;28;20197;-92
2022/10/08 08:45:00;;;;;;;24.23;20.13;;;13.80;99.90;;;;;;5034147;28;20248;-92
2022/10/08 08:47:36;;;;;;;25.07;21.00;;;13.70;99.90;;;;;;5034054;28;20720;-92
2022/10/08 08:50:20;;;;;;;24.47;21.33;;;13.70;99.90;;;;;;5034071;28;20580;-92
2022/10/08 08:52:53;;;;;;;23.37;20.50;;;13.70;99.90;;;;;;5036895;28;20209;-92
2022/10/08 08:55:37;;;;;;;25.93;19.80;;;13.70;99.90;;;;;;5037440;28;20205;-92
2022/10/08 08:58:20;;;;;;;23.80;21.07;;;13.70;99.90;;;;;;5037877;28;20223;-91
2022/10/08 09:00:58;;;;;;;23.83;20.87;;;13.70;99.90;;;;;;5038154;28;20220;-91
2022/10/08 09:03:34;;;;;;;24.10;19.63;;;13.70;99.90;;;;;;5020218;28;20212;-91
2022/10/08 09:06:10;;;;;;;25.40;20.70;;;13.60;99.90;;;;;;5037630;28;20204;-92
2022/10/08 09:08:48;;;;;;;24.00;20.30;;;13.60;99.90;;;;;;5037594;28;20216;-93
2022/10/08 09:11:22;;;;;;;26.27;20.80;;;13.60;99.90;;;;;;5037145;28;20212;-92
2022/10/08 09:13:59;;;;;;;24.10;21.33;;;13.60;99.90;;;;;;5036083;28;20236;-92
2022/10/08 09:16:30;;;;;;;25.47;19.93;;;13.70;99.90;;;;;;5037000;28;20216;-92
2022/10/08 09:19:01;;;;;;;23.40;20.77;;;13.60;99.90;;;;;;5036645;28;20232;-92
2022/10/08 09:21:34;;;;;;;22.90;20.07;;;13.60;99.90;;;;;;5036968;28;20692;-92
2022/10/08 09:24:07;;;;;;;25.23;21.00;;;13.60;99.90;;;;;;5036600;28;20213;-91
2022/10/08 09:26:38;;;;;;;25.80;20.80;;;13.50;99.90;;;;;;5037048;28;20272;-92
2022/10/08 09:29:30;;;;;;;26.43;19.47;;;13.50;99.90;;;;;;5037421;28;20219;-93
2022/10/08 09:32:01;;;;;;;26.67;20.30;;;13.50;99.90;;;;;;5036239;28;20209;-93
2022/10/08 09:34:33;;;;;;;23.83;19.93;;;13.50;99.90;;;;;;5019533;28;20236;-91
2022/10/08 09:37:07;;;;;;;23.33;19.63;;;13.50;99.90;;;;;;5039749;28;20590;-90
2022/10/08 09:39:40;;;;;;;22.70;19.00;;;13.50;99.90;;;;;;5052868;28;20667;-91
2022/10/08 09:42:17;;;;;;;25.17;19.83;;;13.50;99.90;;;;;;5076424;28;20233;-92
2022/10/08 09:44:50;;;;;;;24.90;20.20;;;13.50;99.90;;;;;;5076620;28;20218;-91
2022/10/08 09:47:24;;;;;;;23.03;20.20;;;13.40;99.90;;;;;;5077094;28;20686;-92
2022/10/08 09:50:06;;;;;;;23.67;19.47;;;13.40;99.90;;;;;;5078621;28;20679;-91
2022/10/08 09:52:40;;;;;;;24.63;19.27;;;13.40;99.90;;;;;;5076644;28;20203;-91
2022/10/08 09:55:28;;;;;;;22.13;19.60;;;13.40;99.90;;;;;;5077798;28;20687;-91
2022/10/08 09:58:02;;;;;;;23.57;19.70;;;13.40;99.90;;;;;;5057756;28;20210;-92
2022/10/08 10:00:36;;;;;;;22.77;20.23;;;13.30;99.90;;;;;;5078110;28;20211;-91
2022/10/08 10:03:17;;;;;;;27.00;19.27;;;13.30;99.90;;;;;;5075029;28;20226;-91
2022/10/08 10:05:53;;;;;;;25.60;19.37;;;13.30;99.90;;;;;;5076959;28;20267;-92
2022/10/08 10:08:45;;;;;;;22.70;19.07;;;13.30;99.90;;;;;;5068479;28;20226;-92
2022/10/08 10:11:25;;;;;;;24.07;19.47;;;13.20;99.90;;;;;;5059379;28;20258;-92
2022/10/08 10:13:58;;;;;;;22.33;19.33;;;13.20;99.90;;;;;;5055217;28;20224;-92
2022/10/08 10:16:36;;;;;;;21.53;18.93;;;13.20;99.90;;;;;;5056916;28;20657;-92
2022/10/08 10:19:12;;;;;;;21.90;19.63;;;13.20;99.90;;;;;;5056424;28;20211;-92
2022/10/08 10:21:49;;;;;;;22.43;19.77;;;13.10;99.90;;;;;;5055626;28;20208;-95
2022/10/08 10:24:56;;;;;;;25.73;19.43;;;13.10;99.90;;;;;;5055797;28;20690;-92
2022/10/08 10:27:36;;;;;;;22.73;18.67;;;13.10;99.90;;;;;;4994341;28;20210;-92
2022/10/08 10:30:17;;;;;;;24.77;20.07;;;13.10;99.90;;;;;;4994835;28;20214;-92
2022/10/08 10:32:53;;;;;;;25.07;20.17;;;13.10;99.90;;;;;;5033741;28;20208;-93
2022/10/08 10:35:27;;;;;;;23.13;19.87;;;13.00;99.90;;;;;;5055233;28;20219;-92
2022/10/08 10:38:06;;;;;;;25.97;19.83;;;12.90;99.90;;;;;;5055579;28;20212;-93
2022/10/08 10:40:41;;;;;;;23.27;19.57;;;13.00;99.90;;;;;;5055127;28;20209;-91
2022/10/08 10:43:26;;;;;;;26.07;20.70;;;13.00;99.90;;;;;;5056937;28;20311;-93
2022/10/08 10:46:03;;;;;;;23.97;19.50;;;12.90;99.90;;;;;;5056263;28;20204;-92
2022/10/08 10:48:35;;;;;;;25.83;19.73;;;12.90;99.90;;;;;;5055920;28;20227;-91
2022/10/08 10:51:17;;;;;;;25.37;19.43;;;12.90;99.90;;;;;;5038622;28;20573;-92
2022/10/08 10:54:01;;;;;;;24.33;20.37;;;12.80;99.90;;;;;;5054661;28;20212;-92
2022/10/08 10:56:37;;;;;;;26.00;19.90;;;12.80;99.90;;;;;;5055102;28;20208;-92
2022/10/08 10:59:29;;;;;;;23.53;20.17;;;12.80;99.90;;;;;;5054758;28;20686;-93
2022/10/08 11:02:11;;;;;;;23.17;20.17;;;12.80;99.90;;;;;;5053961;28;20214;-92
2022/10/08 11:04:51;;;;;;;25.33;20.20;;;12.80;99.90;;;;;;5055191;28;20220;-93
2022/10/08 11:07:56;;;;;;;23.57;19.83;;;12.70;99.90;;;;;;5054990;28;20200;-92
2022/10/08 11:10:40;;;;;;;23.07;19.93;;;12.70;99.90;;;;;;5045658;28;20215;-92
2022/10/08 11:13:24;;;;;;;24.80;19.23;;;12.70;99.90;;;;;;5053833;28;20212;-92
2022/10/08 11:16:09;;;;;;;23.07;19.20;;;12.70;99.90;;;;;;5054785;28;20236;-93
2022/10/08 11:18:48;;;;;;;22.83;19.57;;;12.70;99.90;;;;;;5054817;28;20262;-92
2022/10/08 11:21:38;;;;;;;23.83;19.97;;;12.60;99.90;;;;;;5055087;28;20291;-92
2022/10/08 11:24:25;;;;;;;27.40;20.53;;;12.60;99.90;;;;;;5054136;28;20220;-91
2022/10/08 11:27:01;;;;;;;24.93;20.20;;;12.60;99.90;;;;;;5054621;28;20213;-92
2022/10/08 11:29:39;;;;;;;24.23;20.03;;;12.60;99.90;;;;;;5054573;28;20222;-92
2022/10/08 11:32:16;;;;;;;25.70;20.37;;;12.50;99.90;;;;;;5053598;28;20216;-92
2022/10/08 11:34:56;;;;;;;24.30;19.47;;;12.50;99.90;;;;;;5037911;28;20257;-93
2022/10/08 11:37:33;;;;;;;24.77;20.10;;;12.50;99.90;;;;;;5039806;28;20210;-93
2022/10/08 11:40:16;;;;;;;25.03;21.03;;;12.40;99.90;;;;;;5054786;28;20207;-93
2022/10/08 11:42:54;;;;;;;23.07;20.37;;;12.40;99.90;;;;;;5058108;28;20311;-93
2022/10/08 11:45:35;;;;;;;24.73;19.60;;;12.40;99.90;;;;;;5055662;28;20204;-92
2022/10/08 11:48:32;;;;;;;22.87;19.93;;;12.40;99.90;;;;;;5055111;28;20215;-93
2022/10/08 11:51:36;;;;;;;22.83;20.37;;;12.40;99.90;;;;;;5055623;28;20204;-93
2022/10/08 11:54:11;;;;;;;23.43;20.87;;;12.40;99.90;;;;;;5035284;28;20204;-92
2022/10/08 11:56:45;;;;;;;25.03;20.57;;;12.40;99.90;;;;;;5054971;28;20246;-92
2022/10/08 11:59:38;;;;;;;21.93;19.73;;;12.40;99.90;;;;;;5060980;28;20212;-92
2022/10/08 12:02:24;;;;;;;26.43;21.50;;;12.30;99.90;;;;;;5054031;28;20665;-93
2022/10/08 12:05:00;;;;;;;25.60;21.67;;;12.30;99.90;;;;;;5040487;28;20215;-93
2022/10/08 12:07:35;;;;;;;24.40;20.70;;;12.40;99.90;;;;;;5037762;28;20305;-92
2022/10/08 12:10:32;;;;;;;25.60;21.50;;;12.30;99.90;;;;;;5037490;28;20208;-92
2022/10/08 12:13:25;;;;;;;23.90;20.63;;;12.30;99.90;;;;;;5053593;28;20208;-92
2022/10/08 12:16:03;;;;;;;26.70;22.20;;;12.30;99.90;;;;;;5054319;28;20258;-92
2022/10/08 12:18:45;;;;;;;26.47;22.03;;;12.20;99.90;;;;;;5054322;28;20218;-92
2022/10/08 12:22:00;;;;;;;25.63;22.40;;;12.20;99.90;;;;;;5054656;28;20601;-93
2022/10/08 12:25:00;;;;;;;25.70;22.13;;;12.20;99.90;;;;;;5054625;28;20230;-94
2022/10/08 12:27:38;;;;;;;25.57;21.53;;;12.20;99.90;;;;;;5057908;28;20291;-92
2022/10/08 12:30:13;;;;;;;26.67;22.53;;;12.10;99.90;;;;;;5058075;28;20215;-92
2022/10/08 12:32:58;;;;;;;28.27;21.27;;;12.20;99.90;;;;;;5057074;28;20653;-92
2022/10/08 12:35:32;;;;;;;27.17;22.80;;;12.20;99.90;;;;;;5057562;28;20608;-94
2022/10/08 12:38:20;;;;;;;27.37;22.87;;;12.10;99.90;;;;;;5040670;28;20586;-92
2022/10/08 12:41:05;;;;;;;24.70;21.97;;;12.10;99.90;;;;;;5057664;28;20485;-93
2022/10/08 12:43:44;;;;;;;28.07;23.03;;;12.10;99.90;;;;;;5039555;28;20212;-92
2022/10/08 12:46:29;;;;;;;30.90;23.73;;;12.10;99.90;;;;;;5040665;28;20563;-92
2022/10/08 12:49:04;;;;;;;27.07;23.13;;;12.10;99.90;;;;;;5058536;28;20210;-92
2022/10/08 12:51:47;;;;;;;27.60;24.37;;;12.00;99.90;;;;;;5040106;28;20683;-93
2022/10/08 12:54:25;;;;;;;29.63;24.40;;;12.00;99.90;;;;;;5057395;28;20208;-93
2022/10/08 12:56:57;;;;;;;30.77;24.03;;;12.00;99.90;;;;;;5057835;28;20691;-92
2022/10/08 12:59:32;;;;;;;31.00;25.07;;;12.00;99.90;;;;;;5040683;28;20204;-92
2022/10/08 13:02:03;;;;;;;28.23;23.33;;;12.00;99.90;;;;;;5057732;28;20207;-93
2022/10/08 13:04:34;;;;;;;27.73;23.83;;;12.00;99.90;;;;;;5059301;28;20208;-93
2022/10/08 13:07:24;;;;;;;30.67;25.00;;;11.90;99.90;;;;;;5060874;28;20204;-91
2022/10/08 13:09:59;;;;;;;29.93;23.83;;;11.90;99.90;;;;;;5077412;28;20260;-94
2022/10/08 13:12:30;;;;;;;29.30;24.23;;;12.00;99.90;;;;;;5077626;28;20196;-92
2022/10/08 13:15:04;;;;;;;28.90;24.20;;;12.00;99.90;;;;;;5075874;28;20251;-92
2022/10/08 13:17:37;;;;;;;26.83;22.17;;;11.90;99.90;;;;;;5060821;28;20212;-92